Time;durP1;ratioP1;P1;durP2;ratioP2;P2;SDS_P1;SDS_P2;PMS_P1;PMS_P2;Temp;Humidity;BMP_temperature;BMP_pressure;BME280_temperature;BME280_humidity;BME280_pressure;Samples;Min_cycle;Max_cycle;Signal;HPM_P1;HPM_P2
2022/01/28 00:00:49;;;;;;;25.35;3.67;;;4.50;99.90;;;;;;5055766;28;20040;-82
2022/01/28 00:03:16;;;;;;;15.38;3.28;;;4.60;99.90;;;;;;5053624;28;20048;-82
2022/01/28 00:05:42;;;;;;;13.38;2.90;;;4.60;99.90;;;;;;5071508;28;20048;-83
2022/01/28 00:08:08;;;;;;;21.63;3.83;;;4.70;99.90;;;;;;5072428;28;20051;-81
2022/01/28 00:10:34;;;;;;;15.05;2.50;;;4.60;99.90;;;;;;5070349;28;20040;-83
2022/01/28 00:18:32;;;;;;;17.05;3.25;;;4.70;99.90;;;;;;5072037;28;20057;-81
2022/01/28 00:39:28;;;;;;;13.20;2.15;;;4.60;99.90;;;;;;5070430;28;20041;-83
2022/01/28 00:41:54;;;;;;;12.43;1.75;;;4.60;99.90;;;;;;5070387;28;20040;-83
2022/01/28 00:44:19;;;;;;;15.60;2.55;;;4.60;99.90;;;;;;5052931;28;20406;-83
2022/01/28 00:46:45;;;;;;;14.18;2.28;;;4.60;99.90;;;;;;5070262;28;20041;-83
2022/01/28 00:49:10;;;;;;;16.48;2.00;;;4.60;99.90;;;;;;5071211;28;20048;-82
2022/01/28 00:51:36;;;;;;;14.68;2.33;;;4.50;99.90;;;;;;5069661;28;20492;-83
2022/01/28 00:54:02;;;;;;;18.52;2.22;;;4.40;99.90;;;;;;5071591;28;20387;-83
2022/01/28 00:56:28;;;;;;;12.25;3.63;;;4.40;99.90;;;;;;5069840;28;20048;-83
2022/01/28 00:58:53;;;;;;;20.45;2.97;;;4.10;99.90;;;;;;5070993;28;20055;-83
2022/01/28 01:01:19;;;;;;;15.30;2.53;;;4.40;99.90;;;;;;5069690;28;20045;-83
2022/01/28 01:03:45;;;;;;;16.85;3.05;;;4.30;99.90;;;;;;5052975;28;20123;-83
2022/01/28 01:06:10;;;;;;;15.50;3.58;;;4.40;99.90;;;;;;5051777;28;20044;-84
2022/01/28 01:08:37;;;;;;;15.93;2.80;;;4.40;99.90;;;;;;5070212;28;20044;-84
2022/01/28 01:11:03;;;;;;;24.95;3.33;;;4.30;99.90;;;;;;5069196;28;20044;-84
2022/01/28 01:13:29;;;;;;;17.60;2.47;;;4.40;99.90;;;;;;5070261;28;20096;-83
2022/01/28 01:15:58;;;;;;;26.90;4.03;;;4.30;99.90;;;;;;5069534;28;20071;-83
2022/01/28 01:18:35;;;;;;;23.60;3.60;;;4.40;99.90;;;;;;5069127;28;20060;-84
2022/01/28 01:21:06;;;;;;;21.13;3.83;;;4.30;99.90;;;;;;5068919;28;20045;-83
2022/01/28 01:23:35;;;;;;;25.75;4.97;;;4.40;99.90;;;;;;5069893;28;20044;-84
2022/01/28 01:28:32;;;;;;;21.77;3.25;;;4.40;99.90;;;;;;5070796;28;20044;-83
2022/01/28 01:30:59;;;;;;;22.55;3.15;;;4.50;99.90;;;;;;5070389;28;20048;-83
2022/01/28 01:33:27;;;;;;;18.90;3.70;;;6.50;99.90;;;;;;5068247;28;20044;-83
2022/01/28 01:35:52;;;;;;;17.23;3.15;;;5.00;99.90;;;;;;5068912;28;20075;-84
2022/01/28 01:38:23;;;;;;;24.88;3.35;;;4.50;99.90;;;;;;5068328;28;20141;-81
2022/01/28 01:40:53;;;;;;;28.35;6.15;;;4.60;99.90;;;;;;5070212;28;20396;-82
2022/01/28 01:46:37;;;;;;;29.27;4.28;;;4.40;99.90;;;;;;5053608;28;20099;-82
2022/01/28 01:52:04;;;;;;;30.30;4.75;;;4.60;99.90;;;;;;5067649;28;20036;-84
2022/01/28 01:54:39;;;;;;;33.90;4.43;;;4.60;99.90;;;;;;5068374;28;20056;-84
2022/01/28 01:57:07;;;;;;;31.27;4.35;;;4.50;99.90;;;;;;5070295;28;20040;-84
2022/01/28 01:59:32;;;;;;;40.65;5.15;;;4.60;99.90;;;;;;5070647;28;20540;-84
2022/01/28 02:01:58;;;;;;;21.05;3.92;;;4.60;99.90;;;;;;5051860;28;20132;-83
2022/01/28 02:04:23;;;;;;;38.10;4.90;;;4.60;99.90;;;;;;5070054;28;20052;-84
2022/01/28 02:06:50;;;;;;;28.58;4.55;;;4.50;99.90;;;;;;5052231;28;20396;-83
2022/01/28 02:09:16;;;;;;;32.13;5.18;;;4.70;99.90;;;;;;5050959;28;20059;-83
2022/01/28 02:11:42;;;;;;;28.48;4.45;;;4.70;99.90;;;;;;5070129;28;20048;-83
2022/01/28 02:14:08;;;;;;;29.23;4.18;;;4.80;99.90;;;;;;5068244;28;20076;-82
2022/01/28 02:16:34;;;;;;;21.23;4.78;;;4.80;99.90;;;;;;5065324;28;20112;-84
2022/01/28 02:19:00;;;;;;;28.92;3.55;;;4.80;99.90;;;;;;5069256;28;20446;-84
2022/01/28 02:21:26;;;;;;;37.20;5.90;;;7.10;99.90;;;;;;5068386;28;20040;-84
2022/01/28 02:23:58;;;;;;;33.05;4.50;;;4.80;99.90;;;;;;5068088;28;20048;-84
2022/01/28 02:26:23;;;;;;;25.27;4.35;;;5.00;99.90;;;;;;5069243;28;20123;-82
2022/01/28 02:28:54;;;;;;;27.85;4.03;;;5.10;99.90;;;;;;5068784;28;20548;-84
2022/01/28 02:31:24;;;;;;;27.40;4.30;;;5.00;99.90;;;;;;5063806;28;20071;-83
2022/01/28 02:33:52;;;;;;;27.95;4.78;;;5.00;99.90;;;;;;5070465;28;20403;-84
2022/01/28 02:36:18;;;;;;;40.25;5.60;;;5.10;99.90;;;;;;5052584;28;20040;-82
2022/01/28 02:38:43;;;;;;;35.33;4.40;;;5.00;99.90;;;;;;5073456;28;20052;-83
2022/01/28 02:41:09;;;;;;;24.60;4.30;;;4.50;99.90;;;;;;5072437;28;20080;-84
2022/01/28 02:46:20;;;;;;;35.00;5.50;;;4.90;99.90;;;;;;5069071;28;20040;-83
2022/01/28 02:48:59;;;;;;;25.20;4.95;;;4.80;99.90;;;;;;5072888;28;20048;-84
2022/01/28 02:51:24;;;;;;;28.50;3.70;;;4.70;99.90;;;;;;5072455;28;20036;-82
2022/01/28 02:54:01;;;;;;;24.35;3.92;;;6.60;99.90;;;;;;5072405;28;20043;-82
2022/01/28 02:56:40;;;;;;;27.23;4.95;;;5.30;99.90;;;;;;5066406;28;20059;-83
2022/01/28 02:59:06;;;;;;;26.98;4.68;;;4.90;99.90;;;;;;5052765;28;20173;-83
2022/01/28 03:01:33;;;;;;;29.58;4.05;;;4.90;99.90;;;;;;5071847;28;20044;-84
2022/01/28 03:04:02;;;;;;;23.85;3.70;;;4.90;99.90;;;;;;5071683;28;20040;-83
2022/01/28 03:06:27;;;;;;;29.55;5.00;;;4.80;99.90;;;;;;5037183;28;20040;-83
2022/01/28 03:08:59;;;;;;;22.45;3.80;;;5.30;99.90;;;;;;5072663;28;20400;-83
2022/01/28 03:19:22;;;;;;;19.58;3.78;;;4.80;99.90;;;;;;5068928;28;20123;-84
2022/01/28 03:21:57;;;;;;;26.27;4.18;;;4.80;99.90;;;;;;5071699;28;20044;-83
2022/01/28 03:24:24;;;;;;;25.90;4.25;;;4.80;99.90;;;;;;5065325;28;20123;-84
2022/01/28 03:26:53;;;;;;;23.75;4.55;;;6.60;99.90;;;;;;5070574;28;20083;-84
2022/01/28 03:29:19;;;;;;;25.58;4.05;;;4.60;99.90;;;;;;5070040;28;20082;-84
2022/01/28 03:31:45;;;;;;;24.83;4.60;;;4.50;99.90;;;;;;5071996;28;20036;-83
2022/01/28 03:34:10;;;;;;;29.20;4.05;;;4.70;99.90;;;;;;5070364;28;20067;-81
2022/01/28 03:36:36;;;;;;;21.95;3.50;;;4.50;99.90;;;;;;5070657;28;20272;-84
2022/01/28 03:39:03;;;;;;;19.83;3.00;;;4.40;99.90;;;;;;5071356;28;20503;-84
2022/01/28 03:41:29;;;;;;;18.15;3.40;;;4.50;99.90;;;;;;5053461;28;20041;-84
2022/01/28 03:43:59;;;;;;;23.27;3.63;;;6.40;99.90;;;;;;5069335;28;20051;-84
2022/01/28 03:46:28;;;;;;;19.58;3.55;;;6.20;99.90;;;;;;5047903;28;20053;-84
2022/01/28 03:48:54;;;;;;;22.80;4.10;;;4.50;99.90;;;;;;5035290;28;20055;-83
2022/01/28 03:51:21;;;;;;;25.60;3.95;;;4.60;99.90;;;;;;5067625;28;20033;-84
2022/01/28 03:53:48;;;;;;;24.33;5.18;;;4.70;99.90;;;;;;5065820;28;20048;-84
2022/01/28 03:56:14;;;;;;;29.55;3.92;;;4.40;99.90;;;;;;5069419;28;20048;-84
2022/01/28 03:58:39;;;;;;;26.45;4.57;;;5.80;99.90;;;;;;5064099;28;20036;-84
2022/01/28 04:01:12;;;;;;;31.38;4.32;;;4.30;99.90;;;;;;5069795;28;20056;-84
2022/01/28 04:03:46;;;;;;;26.58;5.25;;;4.30;99.90;;;;;;5051549;28;20052;-84
2022/01/28 04:11:41;;;;;;;34.20;4.45;;;4.90;99.90;;;;;;5066365;28;20052;-83
2022/01/28 04:14:30;;;;;;;29.20;4.60;;;6.60;99.90;;;;;;5048420;28;20447;-82
2022/01/28 04:19:37;;;;;;;16.50;3.30;;;4.60;99.90;;;;;;5060221;28;20396;-82
2022/01/28 04:22:03;;;;;;;32.67;3.92;;;4.50;99.90;;;;;;5065323;28;20563;-84
2022/01/28 04:24:29;;;;;;;31.33;4.32;;;4.70;99.90;;;;;;5065180;28;20503;-82
2022/01/28 04:26:54;;;;;;;28.77;4.65;;;4.70;99.90;;;;;;5070244;28;20040;-82
2022/01/28 04:29:20;;;;;;;30.92;3.83;;;4.70;99.90;;;;;;5051617;28;20400;-83
2022/01/28 04:31:47;;;;;;;34.88;4.68;;;4.30;99.90;;;;;;5051478;28;20450;-84
2022/01/28 04:34:14;;;;;;;33.15;4.47;;;4.70;99.90;;;;;;5065224;28;20469;-83
2022/01/28 04:36:52;;;;;;;34.28;5.40;;;6.30;99.90;;;;;;5052330;28;20040;-84
2022/01/28 04:39:29;;;;;;;26.95;4.43;;;4.70;99.90;;;;;;5069521;28;20048;-84
2022/01/28 04:44:53;;;;;;;23.15;3.88;;;4.80;99.90;;;;;;5064526;28;20044;-83
2022/01/28 04:48:12;;;;;;;24.73;3.90;;;5.00;99.90;;;;;;5070290;28;20059;-85
2022/01/28 04:50:34;;;;;;;29.20;4.90;;;4.70;99.90;;;;;;5062540;28;20740;-82
2022/01/28 05:09:35;;;;;;;35.13;5.43;;;4.70;99.90;;;;;;5069731;28;20048;-85
2022/01/28 05:17:17;;;;;;;24.85;4.07;;;4.60;99.90;;;;;;5070279;28;20083;-85
2022/01/28 05:27:28;;;;;;;25.05;3.60;;;4.50;99.90;;;;;;5068289;28;20099;-84
2022/01/28 05:29:53;;;;;;;24.38;4.30;;;4.40;99.90;;;;;;5053816;28;20058;-84
2022/01/28 05:32:19;;;;;;;27.33;4.05;;;4.30;99.90;;;;;;5068699;28;20082;-85
2022/01/28 05:34:45;;;;;;;30.10;4.45;;;4.20;99.90;;;;;;5053285;28;20119;-84
2022/01/28 05:37:11;;;;;;;26.65;4.18;;;4.30;99.90;;;;;;5052737;28;20132;-82
2022/01/28 05:39:36;;;;;;;21.10;4.55;;;4.30;99.90;;;;;;5069116;28;20070;-84
2022/01/28 05:42:03;;;;;;;38.75;5.93;;;5.30;99.90;;;;;;5069631;28;20097;-82
2022/01/28 05:44:29;;;;;;;26.98;4.30;;;4.30;99.90;;;;;;5053071;28;20040;-83
2022/01/28 05:47:02;;;;;;;25.27;4.60;;;4.20;99.90;;;;;;5052187;28;20458;-85
2022/01/28 05:49:28;;;;;;;24.20;4.22;;;4.80;99.90;;;;;;5061888;28;20041;-84
2022/01/28 05:51:54;;;;;;;35.03;5.20;;;4.10;99.90;;;;;;5053176;28;20047;-85
2022/01/28 05:54:20;;;;;;;17.50;3.40;;;4.30;99.90;;;;;;5052262;28;20145;-85
2022/01/28 05:56:45;;;;;;;37.45;5.43;;;4.10;99.90;;;;;;5053093;28;20388;-85
2022/01/28 05:59:11;;;;;;;32.58;4.70;;;4.00;99.90;;;;;;5069441;28;20045;-84
2022/01/28 06:01:37;;;;;;;30.73;3.90;;;5.30;99.90;;;;;;5069537;28;20076;-84
2022/01/28 06:04:02;;;;;;;30.65;4.32;;;4.10;99.90;;;;;;5069223;28;20044;-84
2022/01/28 06:06:28;;;;;;;35.35;5.00;;;4.20;99.90;;;;;;5061130;28;20044;-84
2022/01/28 06:08:55;;;;;;;23.25;4.20;;;4.20;99.90;;;;;;5066552;28;20480;-85
2022/01/28 06:11:22;;;;;;;34.80;4.25;;;5.80;99.90;;;;;;5071218;28;20051;-85
2022/01/28 06:13:48;;;;;;;24.85;3.80;;;4.20;99.90;;;;;;5057612;28;20131;-82
2022/01/28 06:16:15;;;;;;;28.35;4.28;;;4.10;99.90;;;;;;5071234;28;20131;-82
2022/01/28 06:18:42;;;;;;;28.33;4.18;;;4.30;99.90;;;;;;5055071;28;20520;-85
2022/01/28 06:21:07;;;;;;;21.48;3.40;;;4.30;99.90;;;;;;5070057;28;20185;-84
2022/01/28 06:23:34;;;;;;;34.78;3.60;;;4.10;99.90;;;;;;5072596;28;20507;-85
2022/01/28 06:25:59;;;;;;;17.38;3.53;;;4.30;99.90;;;;;;5073177;28;20037;-84
2022/01/28 06:28:28;;;;;;;18.85;3.65;;;4.20;99.90;;;;;;5072282;28;20045;-84
2022/01/28 06:30:54;;;;;;;23.38;5.00;;;4.40;99.90;;;;;;5057219;28;20472;-84
2022/01/28 06:33:20;;;;;;;21.88;3.67;;;4.30;99.90;;;;;;5074315;28;20036;-82
2022/01/28 06:35:46;;;;;;;26.52;3.85;;;4.30;99.90;;;;;;5053103;28;20041;-82
2022/01/28 06:38:13;;;;;;;28.17;5.18;;;4.40;99.90;;;;;;5056188;28;20453;-82
2022/01/28 06:40:38;;;;;;;31.48;3.97;;;4.40;99.90;;;;;;5054232;28;20555;-85
2022/01/28 06:43:07;;;;;;;29.10;4.43;;;4.40;99.90;;;;;;5054619;28;20127;-83
2022/01/28 06:45:32;;;;;;;26.70;4.13;;;4.30;99.90;;;;;;5063616;28;20040;-81
2022/01/28 06:47:58;;;;;;;25.38;4.03;;;4.30;99.90;;;;;;5073917;28;20097;-82
2022/01/28 06:50:24;;;;;;;27.25;3.60;;;4.30;99.90;;;;;;5055367;28;20053;-85
2022/01/28 06:52:49;;;;;;;28.67;4.63;;;4.30;99.90;;;;;;5073065;28;20040;-81
2022/01/28 06:55:16;;;;;;;22.10;4.00;;;4.20;99.90;;;;;;5071257;28;20629;-80
2022/01/28 06:57:42;;;;;;;23.30;4.68;;;4.30;99.90;;;;;;5072254;28;20052;-82
2022/01/28 07:00:09;;;;;;;34.92;4.65;;;4.30;99.90;;;;;;5055068;28;20036;-85
2022/01/28 07:02:35;;;;;;;27.10;4.68;;;4.30;99.90;;;;;;5072165;28;20044;-83
2022/01/28 07:05:04;;;;;;;28.67;4.43;;;4.30;99.90;;;;;;4703369;28;9999724;-82
2022/01/28 07:07:30;;;;;;;27.05;4.30;;;4.30;99.90;;;;;;5053087;28;20041;-84
2022/01/28 07:09:55;;;;;;;26.13;3.85;;;4.40;99.90;;;;;;5070080;28;20036;-82
2022/01/28 07:12:22;;;;;;;26.95;4.10;;;4.40;99.90;;;;;;5085487;28;20055;-81
2022/01/28 07:14:48;;;;;;;32.40;3.75;;;4.30;99.90;;;;;;5070073;28;20078;-81
2022/01/28 07:17:15;;;;;;;20.52;4.00;;;4.30;99.90;;;;;;5068303;28;20041;-82
2022/01/28 07:19:40;;;;;;;26.02;3.30;;;5.40;99.90;;;;;;5070568;28;20365;-85
2022/01/28 07:22:06;;;;;;;31.25;4.07;;;4.30;99.90;;;;;;5053983;28;20094;-80
2022/01/28 07:24:32;;;;;;;23.58;3.95;;;4.40;99.90;;;;;;5055782;28;20053;-81
2022/01/28 07:26:58;;;;;;;25.92;3.78;;;4.30;99.90;;;;;;5071887;28;20445;-81
2022/01/28 07:29:28;;;;;;;29.13;3.92;;;4.30;99.90;;;;;;5072044;28;20384;-85
2022/01/28 07:31:54;;;;;;;23.83;3.30;;;3.90;99.90;;;;;;5079851;28;20460;-81
2022/01/28 07:34:20;;;;;;;26.50;3.90;;;4.30;99.90;;;;;;5071922;28;20435;-84
2022/01/28 07:36:46;;;;;;;27.63;4.22;;;4.30;99.90;;;;;;5055168;28;20051;-80
2022/01/28 07:39:12;;;;;;;29.13;4.82;;;4.20;99.90;;;;;;5053941;28;20078;-81
2022/01/28 07:41:37;;;;;;;21.05;4.93;;;6.40;99.90;;;;;;5072187;28;20102;-84
2022/01/28 07:44:04;;;;;;;22.92;3.88;;;4.30;99.90;;;;;;5072273;28;20042;-84
2022/01/28 07:46:29;;;;;;;32.67;4.25;;;4.20;99.90;;;;;;5071929;28;20079;-82
2022/01/28 07:48:55;;;;;;;29.00;4.15;;;4.30;99.90;;;;;;5072277;28;20484;-84
2022/01/28 07:51:21;;;;;;;20.58;3.92;;;6.00;99.90;;;;;;5072198;28;20044;-85
2022/01/28 07:53:46;;;;;;;25.83;3.70;;;4.10;99.90;;;;;;5055350;28;20040;-84
2022/01/28 07:56:13;;;;;;;31.60;5.43;;;4.20;99.90;;;;;;5054701;28;20044;-83
2022/01/28 07:58:39;;;;;;;31.73;4.63;;;4.20;99.90;;;;;;5063917;28;20037;-81
2022/01/28 08:01:04;;;;;;;30.35;4.25;;;4.00;99.90;;;;;;5071234;28;20059;-82
2022/01/28 08:03:30;;;;;;;27.80;4.40;;;4.20;99.90;;;;;;5054857;28;20412;-81
2022/01/28 08:05:56;;;;;;;18.52;4.75;;;4.00;99.90;;;;;;5070922;28;20032;-82
2022/01/28 08:08:21;;;;;;;30.52;4.07;;;3.70;99.90;;;;;;5071147;28;20044;-82
2022/01/28 08:10:48;;;;;;;19.45;3.33;;;4.10;99.90;;;;;;5055175;28;20029;-85
2022/01/28 08:13:14;;;;;;;19.85;3.80;;;4.00;99.90;;;;;;5054823;28;20049;-81
2022/01/28 08:15:40;;;;;;;28.55;4.85;;;4.10;99.90;;;;;;5070548;28;20503;-84
2022/01/28 08:18:07;;;;;;;27.13;4.10;;;4.10;99.90;;;;;;5054854;28;20044;-84
2022/01/28 08:20:33;;;;;;;29.40;3.70;;;3.80;99.90;;;;;;5054599;28;20435;-82
2022/01/28 08:23:00;;;;;;;17.25;2.92;;;4.00;99.90;;;;;;5070529;28;20049;-83
2022/01/28 08:25:27;;;;;;;34.63;5.40;;;4.10;99.90;;;;;;5054762;28;20361;-84
2022/01/28 08:27:53;;;;;;;27.65;3.80;;;4.00;99.90;;;;;;5071277;28;20040;-83
2022/01/28 08:30:21;;;;;;;35.22;4.95;;;5.30;99.90;;;;;;5054310;28;20057;-83
2022/01/28 08:32:47;;;;;;;23.08;5.20;;;3.90;99.90;;;;;;5054245;28;20587;-82
2022/01/28 08:35:14;;;;;;;28.52;4.25;;;5.90;99.90;;;;;;5069281;28;20089;-85
2022/01/28 08:37:40;;;;;;;28.30;4.20;;;3.60;99.90;;;;;;5054253;28;20096;-81
2022/01/28 08:40:08;;;;;;;30.35;4.70;;;5.80;99.90;;;;;;5054774;28;20048;-83
2022/01/28 08:42:37;;;;;;;26.45;3.63;;;4.20;99.90;;;;;;5072054;28;20048;-83
2022/01/28 08:45:03;;;;;;;26.95;3.80;;;4.20;99.90;;;;;;5053832;28;20081;-82
2022/01/28 08:47:29;;;;;;;30.85;4.53;;;4.40;99.90;;;;;;5070287;28;20137;-82
2022/01/28 08:49:55;;;;;;;27.75;4.43;;;4.40;99.90;;;;;;5070352;28;20117;-85
2022/01/28 08:52:20;;;;;;;24.70;4.75;;;4.40;99.90;;;;;;5072108;28;20037;-82
2022/01/28 08:54:47;;;;;;;29.35;4.65;;;5.40;99.90;;;;;;5054432;28;20051;-84
2022/01/28 08:57:12;;;;;;;22.50;4.15;;;6.50;99.90;;;;;;5052883;28;20037;-87
2022/01/28 08:59:43;;;;;;;33.22;4.78;;;6.10;99.90;;;;;;5070559;28;20124;-81
2022/01/28 09:02:09;;;;;;;23.80;5.53;;;4.60;99.90;;;;;;5054003;28;20047;-85
2022/01/28 09:04:34;;;;;;;21.60;4.53;;;3.50;99.90;;;;;;5069706;28;20051;-81
2022/01/28 09:07:01;;;;;;;28.38;4.85;;;4.60;99.90;;;;;;5053732;28;20032;-85
2022/01/28 09:09:28;;;;;;;27.20;5.45;;;4.10;99.90;;;;;;5054021;28;20040;-84
2022/01/28 09:12:06;;;;;;;33.60;4.50;;;4.20;99.90;;;;;;5069720;28;20480;-82
2022/01/28 09:14:32;;;;;;;36.70;4.68;;;4.70;99.90;;;;;;5070205;28;20048;-82
2022/01/28 09:16:57;;;;;;;37.15;5.95;;;4.60;99.90;;;;;;5070354;28;20048;-84
2022/01/28 09:19:23;;;;;;;29.80;5.05;;;4.70;99.90;;;;;;5053018;28;20079;-82
2022/01/28 09:21:49;;;;;;;29.33;5.18;;;4.30;99.90;;;;;;5054090;28;20094;-87
2022/01/28 09:24:15;;;;;;;35.30;4.45;;;4.80;99.90;;;;;;5052856;28;20420;-85
2022/01/28 09:26:41;;;;;;;24.20;4.25;;;4.70;99.90;;;;;;5053110;28;20048;-84
2022/01/28 09:29:07;;;;;;;29.10;4.45;;;4.80;99.90;;;;;;5070337;28;20080;-82
2022/01/28 09:31:32;;;;;;;33.22;4.28;;;4.80;99.90;;;;;;5070172;28;20818;-82
2022/01/28 09:33:58;;;;;;;24.10;4.15;;;5.00;99.90;;;;;;5053610;28;20041;-82
2022/01/28 09:36:24;;;;;;;32.30;4.32;;;5.10;99.90;;;;;;5069842;28;20044;-84
2022/01/28 09:38:50;;;;;;;23.50;3.53;;;4.90;99.90;;;;;;5069612;28;20037;-83
2022/01/28 09:41:16;;;;;;;27.20;4.25;;;5.20;99.90;;;;;;5053183;28;20075;-81
2022/01/28 09:43:46;;;;;;;39.60;4.80;;;5.10;99.90;;;;;;5053812;28;20067;-83
2022/01/28 09:46:13;;;;;;;20.20;4.13;;;5.20;99.90;;;;;;5075585;28;20429;-82
2022/01/28 09:48:39;;;;;;;32.97;5.05;;;5.10;99.90;;;;;;5060291;28;20072;-84
2022/01/28 09:51:05;;;;;;;25.38;4.68;;;5.30;99.90;;;;;;5077232;28;20047;-82
2022/01/28 09:53:31;;;;;;;31.23;5.10;;;5.20;99.90;;;;;;5062663;28;20048;-82
2022/01/28 09:55:57;;;;;;;23.52;4.70;;;5.30;99.90;;;;;;5065850;28;20041;-84
2022/01/28 09:58:24;;;;;;;18.55;3.55;;;5.00;99.90;;;;;;5060021;28;20048;-84
2022/01/28 10:00:50;;;;;;;19.05;3.55;;;5.60;99.90;;;;;;5059398;28;20033;-84
2022/01/28 10:03:18;;;;;;;24.00;3.85;;;5.20;99.90;;;;;;5059313;28;20056;-83
2022/01/28 10:05:50;;;;;;;31.75;4.82;;;4.90;99.90;;;;;;5059526;28;20076;-82
2022/01/28 10:08:18;;;;;;;24.77;4.25;;;5.30;99.90;;;;;;5059075;28;20052;-82
2022/01/28 10:11:15;;;;;;;24.83;4.35;;;5.30;99.90;;;;;;5060320;28;20036;-82
2022/01/28 10:13:53;;;;;;;29.10;3.88;;;5.50;99.90;;;;;;5075585;28;20142;-86
2022/01/28 10:16:19;;;;;;;34.00;4.03;;;5.40;99.90;;;;;;5076075;28;20068;-82
2022/01/28 10:18:55;;;;;;;29.60;4.13;;;5.40;99.90;;;;;;5076752;28;20048;-82
2022/01/28 10:21:37;;;;;;;24.48;3.92;;;5.50;99.90;;;;;;5076194;28;20036;-83
2022/01/28 10:24:16;;;;;;;21.00;4.03;;;5.60;99.90;;;;;;5068972;28;20044;-86
2022/01/28 10:26:48;;;;;;;26.30;4.63;;;5.60;99.90;;;;;;5073383;28;20400;-85
2022/01/28 10:29:36;;;;;;;29.80;4.38;;;5.70;99.90;;;;;;5076283;28;20578;-82
2022/01/28 10:32:10;;;;;;;17.52;3.40;;;5.60;99.90;;;;;;5069080;28;20079;-85
2022/01/28 10:34:39;;;;;;;30.15;5.13;;;5.70;99.90;;;;;;5058796;28;20094;-82
2022/01/28 10:37:11;;;;;;;22.80;4.32;;;5.60;99.90;;;;;;5059248;28;20036;-84
2022/01/28 10:39:44;;;;;;;28.30;4.38;;;5.70;99.90;;;;;;5076519;28;20045;-84
2022/01/28 10:42:12;;;;;;;22.97;3.60;;;5.80;99.90;;;;;;5075852;28;20056;-83
2022/01/28 10:44:56;;;;;;;31.63;4.70;;;5.40;99.90;;;;;;5059487;28;20048;-83
2022/01/28 10:47:30;;;;;;;29.57;5.20;;;5.90;99.90;;;;;;5075165;28;20059;-82
2022/01/28 10:49:56;;;;;;;22.63;3.35;;;5.80;99.90;;;;;;5059361;28;20044;-84
2022/01/28 10:52:32;;;;;;;23.90;3.63;;;5.70;99.90;;;;;;5059577;28;20089;-84
2022/01/28 10:54:58;;;;;;;23.42;3.80;;;5.80;99.90;;;;;;5075275;28;20045;-83
2022/01/28 10:57:23;;;;;;;26.08;4.03;;;5.90;99.90;;;;;;5055095;28;20506;-85
2022/01/28 10:59:49;;;;;;;26.85;3.95;;;5.90;99.90;;;;;;5056694;28;20144;-83
2022/01/28 11:02:16;;;;;;;25.25;3.70;;;5.30;99.90;;;;;;5071689;28;20052;-81
2022/01/28 11:04:43;;;;;;;30.33;5.15;;;5.80;99.90;;;;;;5072808;28;20045;-85
2022/01/28 11:07:11;;;;;;;16.25;2.83;;;5.70;99.90;;;;;;5055426;28;20045;-82
2022/01/28 11:09:40;;;;;;;22.63;3.80;;;5.80;99.90;;;;;;5055694;28;20183;-81
2022/01/28 11:12:07;;;;;;;26.50;4.03;;;7.60;99.90;;;;;;5073206;28;20101;-85
2022/01/28 11:14:33;;;;;;;33.55;3.88;;;6.00;99.90;;;;;;5072346;28;20048;-85
2022/01/28 11:16:59;;;;;;;25.45;3.47;;;5.80;99.90;;;;;;5071483;28;20047;-84
2022/01/28 11:19:28;;;;;;;23.33;3.72;;;5.90;99.90;;;;;;5072866;28;20171;-83
2022/01/28 11:22:11;;;;;;;22.13;4.20;;;6.10;99.90;;;;;;5068830;28;20032;-84
2022/01/28 11:25:14;;;;;;;23.13;4.38;;;5.90;99.90;;;;;;5056038;28;20048;-84
2022/01/28 11:27:40;;;;;;;25.75;3.72;;;6.10;99.90;;;;;;5069573;28;20052;-82
2022/01/28 11:30:20;;;;;;;30.63;5.00;;;6.00;99.90;;;;;;5055471;28;20032;-82
2022/01/28 11:33:06;;;;;;;24.60;4.05;;;6.10;99.90;;;;;;5072544;28;20045;-82
2022/01/28 11:35:52;;;;;;;37.55;4.25;;;6.10;99.90;;;;;;5055500;28;20098;-83
2022/01/28 11:38:27;;;;;;;25.83;4.07;;;6.10;99.90;;;;;;5048793;28;20052;-83
2022/01/28 11:40:58;;;;;;;23.08;4.13;;;6.00;99.90;;;;;;5072270;28;20044;-82
2022/01/28 11:43:29;;;;;;;30.90;4.32;;;6.00;99.90;;;;;;5066334;28;20053;-83
2022/01/28 11:46:10;;;;;;;26.38;3.47;;;6.00;99.90;;;;;;5071758;28;20045;-83
2022/01/28 11:48:51;;;;;;;23.00;3.60;;;6.10;99.90;;;;;;5073705;28;20458;-85
2022/01/28 11:51:18;;;;;;;26.75;3.70;;;6.10;99.90;;;;;;5064292;28;20040;-85
2022/01/28 11:53:54;;;;;;;27.13;4.72;;;6.10;99.90;;;;;;5056084;28;20546;-82
2022/01/28 11:56:27;;;;;;;23.88;3.83;;;6.00;99.90;;;;;;5076036;28;20072;-81
2022/01/28 11:58:57;;;;;;;27.65;4.55;;;7.70;99.90;;;;;;5080586;28;20067;-82
2022/01/28 12:01:23;;;;;;;26.50;3.75;;;6.20;99.90;;;;;;5055429;28;20044;-85
2022/01/28 12:03:49;;;;;;;25.42;3.75;;;6.40;99.90;;;;;;5049846;28;20049;-84
2022/01/28 12:06:17;;;;;;;19.75;3.10;;;6.50;99.90;;;;;;4365832;28;10021548;-82
2022/01/28 12:08:45;;;;;;;28.45;3.80;;;6.40;99.90;;;;;;5075292;28;20117;-84
2022/01/28 12:11:13;;;;;;;30.35;3.50;;;6.30;99.90;;;;;;5052328;28;20484;-83
2022/01/28 12:14:00;;;;;;;23.58;3.33;;;6.40;99.90;;;;;;5052958;28;20051;-85
2022/01/28 12:16:27;;;;;;;21.05;3.33;;;6.50;99.90;;;;;;5066490;28;20047;-84
2022/01/28 12:18:55;;;;;;;23.40;3.00;;;6.50;99.90;;;;;;5066511;28;20055;-85
2022/01/28 12:21:28;;;;;;;23.88;4.10;;;6.50;99.90;;;;;;5067925;28;20090;-86
2022/01/28 12:24:18;;;;;;;25.02;3.45;;;6.60;99.90;;;;;;5044890;28;20052;-86
2022/01/28 12:27:02;;;;;;;22.92;3.35;;;6.60;99.90;;;;;;5063322;28;20048;-82
2022/01/28 12:29:31;;;;;;;21.65;3.20;;;6.50;99.90;;;;;;5057681;28;20051;-82
2022/01/28 12:31:58;;;;;;;24.83;5.05;;;6.50;99.90;;;;;;5048756;28;20032;-85
2022/01/28 12:34:25;;;;;;;24.13;4.10;;;6.50;99.90;;;;;;5077284;28;20040;-84
2022/01/28 12:36:51;;;;;;;25.23;3.78;;;6.40;99.90;;;;;;5067595;28;20040;-82
2022/01/28 12:41:55;;;;;;;27.40;3.35;;;6.60;99.90;;;;;;5063474;28;20044;-83
2022/01/28 12:44:21;;;;;;;22.58;2.75;;;6.70;99.90;;;;;;5051801;28;20044;-84
2022/01/28 12:46:58;;;;;;;20.08;3.65;;;6.80;99.90;;;;;;5047197;28;20134;-83
2022/01/28 12:49:29;;;;;;;25.02;3.17;;;6.90;99.90;;;;;;5048986;28;20045;-83
2022/01/28 12:51:58;;;;;;;24.63;3.65;;;6.90;99.90;;;;;;5049134;28;20041;-84
2022/01/28 12:54:36;;;;;;;24.90;3.47;;;6.90;99.90;;;;;;5066775;28;20051;-84
2022/01/28 12:57:03;;;;;;;22.48;3.38;;;6.80;99.90;;;;;;5065498;28;20049;-84
2022/01/28 12:59:29;;;;;;;18.70;3.45;;;6.90;99.90;;;;;;5063185;28;20082;-84
2022/01/28 13:01:56;;;;;;;21.55;2.83;;;6.70;99.90;;;;;;5050667;28;20044;-82
2022/01/28 13:04:35;;;;;;;20.00;3.15;;;6.70;99.90;;;;;;5051109;28;20135;-83
2022/01/28 13:08:24;;;;;;;20.20;2.88;;;6.70;99.90;;;;;;5042900;28;20492;-85
2022/01/28 13:09:48;;;;;;;19.85;3.17;;;6.70;99.90;;;;;;5067430;28;20050;-82
2022/01/28 13:12:29;;;;;;;18.05;3.25;;;6.70;99.90;;;;;;5067706;28;20048;-84
2022/01/28 13:15:02;;;;;;;22.30;2.53;;;6.80;99.90;;;;;;5050828;28;20080;-84
2022/01/28 13:17:28;;;;;;;20.25;2.58;;;6.80;99.90;;;;;;5050946;28;20048;-82
2022/01/28 13:19:55;;;;;;;23.35;3.33;;;6.90;99.90;;;;;;5064158;28;20415;-84
2022/01/28 13:22:23;;;;;;;16.33;3.33;;;6.90;99.90;;;;;;5061810;28;20132;-83
2022/01/28 13:24:51;;;;;;;21.77;3.20;;;6.80;99.90;;;;;;5050075;28;20149;-83
2022/01/28 13:27:17;;;;;;;24.42;3.75;;;6.80;99.90;;;;;;5068996;28;20131;-81
2022/01/28 13:29:49;;;;;;;28.60;3.72;;;6.80;99.90;;;;;;5068518;28;20111;-82
2022/01/28 13:32:20;;;;;;;22.65;2.90;;;6.80;99.90;;;;;;5067204;28;20139;-81
2022/01/28 13:34:55;;;;;;;21.45;2.85;;;6.80;99.90;;;;;;5065612;28;20051;-81
2022/01/28 13:37:30;;;;;;;21.92;2.33;;;6.90;99.90;;;;;;5066005;28;20048;-81
2022/01/28 13:39:55;;;;;;;21.55;2.78;;;6.90;99.90;;;;;;5068659;28;20048;-81
2022/01/28 13:42:23;;;;;;;20.30;3.25;;;7.00;99.90;;;;;;5059633;28;20048;-81
2022/01/28 13:44:49;;;;;;;12.90;2.70;;;7.10;99.90;;;;;;5067155;28;20044;-82
2022/01/28 13:47:17;;;;;;;16.42;2.67;;;7.20;99.90;;;;;;5061999;28;20060;-81
2022/01/28 13:49:43;;;;;;;17.83;3.42;;;7.20;99.90;;;;;;5060038;28;20068;-81
2022/01/28 13:52:10;;;;;;;15.55;3.22;;;7.30;99.90;;;;;;5067548;28;20391;-81
2022/01/28 13:54:36;;;;;;;14.45;2.67;;;7.40;99.90;;;;;;5065175;28;20399;-81
2022/01/28 13:57:04;;;;;;;16.45;2.47;;;7.40;99.90;;;;;;5042888;28;20044;-82
2022/01/28 13:59:32;;;;;;;21.95;2.72;;;7.40;99.90;;;;;;5071864;28;20036;-81
2022/01/28 14:02:01;;;;;;;20.75;3.13;;;7.40;99.90;;;;;;5051357;28;20054;-81
2022/01/28 14:04:35;;;;;;;17.00;3.28;;;7.30;99.90;;;;;;5066200;28;20442;-81
2022/01/28 14:07:11;;;;;;;19.98;3.67;;;7.30;99.90;;;;;;5049434;28;20145;-82
2022/01/28 14:09:43;;;;;;;19.67;2.95;;;7.20;99.90;;;;;;5065384;28;20106;-81
2022/01/28 14:12:12;;;;;;;20.98;2.97;;;7.20;99.90;;;;;;5065841;28;20044;-82
2022/01/28 14:14:45;;;;;;;20.73;2.67;;;7.10;99.90;;;;;;5065564;28;20047;-81
2022/01/28 14:17:11;;;;;;;26.95;3.97;;;7.00;99.90;;;;;;5057145;28;20435;-81
2022/01/28 14:19:39;;;;;;;17.20;3.40;;;7.00;99.90;;;;;;5045316;28;20033;-82